createdAt,value
2022-11-26T00:01:23.358Z,22.23
2022-11-26T00:03:52.647Z,22.42
2022-11-26T00:06:27.902Z,20.85
2022-11-26T00:08:55.763Z,22.15
2022-11-26T00:11:23.395Z,22.58
2022-11-26T00:13:51.045Z,21.63
2022-11-26T00:16:19.098Z,23.20
2022-11-26T00:18:46.813Z,21.60
2022-11-26T00:21:26.663Z,22.60
2022-11-26T00:23:55.509Z,21.45
2022-11-26T00:26:25.096Z,22.10
2022-11-26T00:28:55.935Z,21.80
2022-11-26T00:31:24.826Z,23.23
2022-11-26T00:33:53.029Z,20.52
2022-11-26T00:36:30.427Z,21.77
2022-11-26T00:39:03.400Z,22.30
2022-11-26T00:41:38.406Z,21.25
2022-11-26T00:44:25.538Z,20.98
2022-11-26T00:46:53.762Z,21.80
2022-11-26T00:49:21.435Z,21.15
2022-11-26T00:51:49.551Z,21.98
2022-11-26T00:54:19.164Z,21.65
2022-11-26T00:56:48.388Z,21.27
2022-11-26T00:59:19.633Z,21.42
2022-11-26T01:01:47.874Z,22.27
2022-11-26T01:04:15.810Z,22.02
2022-11-26T01:06:44.997Z,20.77
2022-11-26T01:09:19.933Z,22.55
2022-11-26T01:11:53.445Z,22.65
2022-11-26T01:14:23.259Z,25.35
2022-11-26T01:16:52.983Z,21.40
2022-11-26T01:19:20.775Z,22.45
2022-11-26T01:21:48.377Z,21.23
2022-11-26T01:24:15.996Z,23.33
2022-11-26T01:26:44.960Z,22.15
2022-11-26T01:29:17.362Z,23.20
2022-11-26T01:31:45.325Z,22.55
2022-11-26T01:34:13.426Z,23.67
2022-11-26T01:36:42.237Z,22.67
2022-11-26T01:39:17.448Z,23.13
2022-11-26T15:19:58.724Z,18.60
2022-11-26T15:22:39.930Z,18.60
2022-11-26T15:25:18.119Z,19.33
2022-11-26T15:27:54.439Z,19.73
2022-11-26T15:30:25.559Z,18.67
2022-11-26T15:35:24.727Z,19.85
2022-11-26T15:37:52.498Z,18.70
2022-11-26T15:40:30.120Z,20.05
2022-11-26T15:43:02.147Z,22.08
2022-11-26T15:45:40.588Z,19.73
2022-11-26T15:48:27.706Z,19.20
2022-11-26T15:51:06.269Z,19.00
2022-11-26T15:53:39.674Z,20.38
2022-11-26T15:56:09.655Z,19.15
2022-11-26T15:58:39.640Z,18.20
2022-11-26T16:01:16.687Z,18.38
2022-11-26T16:03:49.912Z,19.08
2022-11-26T16:06:35.504Z,19.70
2022-11-26T16:09:09.179Z,18.60
2022-11-26T16:11:39.658Z,18.48
2022-11-26T16:14:34.539Z,19.08
2022-11-26T16:17:15.717Z,19.00
2022-11-26T16:19:56.246Z,18.50
2022-11-26T16:22:33.552Z,17.77
2022-11-26T16:25:04.519Z,20.15
2022-11-26T16:30:06.760Z,20.83
2022-11-26T16:32:34.374Z,21.00
2022-11-26T16:35:17.455Z,23.63
2022-11-26T16:37:49.494Z,19.70
2022-11-26T16:40:19.211Z,17.95
2022-11-26T16:42:47.817Z,18.60
2022-11-26T16:45:16.245Z,20.02
2022-11-26T16:47:46.193Z,19.17
2022-11-26T16:50:25.670Z,19.38
2022-11-26T16:52:54.840Z,19.45
2022-11-26T16:55:25.624Z,18.42
2022-11-26T16:57:56.758Z,19.52
2022-11-26T17:00:27.275Z,18.80
2022-11-26T17:02:55.052Z,19.63
2022-11-26T17:05:23.274Z,18.30
2022-11-26T17:07:59.541Z,18.17
2022-11-26T17:10:29.492Z,18.55
2022-11-26T17:12:57.688Z,17.17
2022-11-26T17:15:25.620Z,18.45
2022-11-26T17:18:00.136Z,18.90
2022-11-26T17:20:27.827Z,18.48
2022-11-26T17:22:55.979Z,17.85
2022-11-26T17:25:23.732Z,20.20
2022-11-26T17:27:51.298Z,18.77
2022-11-26T17:30:22.191Z,19.30
2022-11-26T17:32:50.882Z,19.63
2022-11-26T17:35:19.327Z,20.60
2022-11-26T17:37:47.514Z,19.80
2022-11-26T17:40:18.434Z,19.25
2022-11-26T17:42:46.923Z,18.90
2022-11-26T17:45:14.999Z,18.98
2022-11-26T17:47:43.234Z,19.10
2022-11-26T17:50:18.989Z,18.90
2022-11-26T17:52:47.237Z,18.95
2022-11-26T17:55:15.768Z,18.85
2022-11-26T17:57:43.935Z,18.52
2022-11-26T18:00:16.141Z,19.00
2022-11-26T18:02:46.492Z,18.27
2022-11-26T18:05:14.850Z,18.00
2022-11-26T18:07:42.523Z,18.77
2022-11-26T18:10:14.338Z,19.55
2022-11-26T18:12:43.168Z,17.88
2022-11-26T18:15:22.485Z,17.98
2022-11-26T18:17:52.394Z,19.42
2022-11-26T18:20:22.088Z,20.90
2022-11-26T18:22:55.342Z,19.25
2022-11-26T18:25:23.326Z,20.75
2022-11-26T18:27:51.877Z,21.48
2022-11-26T18:30:20.211Z,19.95
2022-11-26T18:32:47.900Z,19.75
2022-11-26T18:35:16.119Z,19.20
2022-11-26T18:37:43.813Z,18.63
2022-11-26T18:40:14.048Z,20.15
2022-11-26T18:42:41.754Z,19.00
2022-11-26T18:45:12.499Z,19.33
2022-11-26T18:47:40.239Z,19.73
2022-11-26T18:50:08.650Z,19.85
2022-11-26T18:52:36.533Z,19.48
2022-11-26T18:55:07.563Z,20.33
2022-11-26T18:57:35.750Z,20.08
2022-11-26T19:00:04.438Z,20.60
2022-11-26T19:02:32.896Z,20.38
2022-11-26T19:05:04.747Z,20.30
2022-11-26T19:07:33.609Z,19.67
2022-11-26T19:10:01.755Z,20.20
2022-11-26T19:12:29.330Z,21.23
2022-11-26T19:14:57.001Z,20.73
2022-11-26T19:17:24.568Z,20.88
2022-11-26T19:19:52.165Z,21.52
2022-11-26T19:22:19.776Z,20.80
2022-11-26T19:24:48.272Z,21.17
2022-11-26T19:27:15.826Z,21.33
2022-11-26T19:29:43.422Z,21.63
2022-11-26T19:32:11.367Z,22.67
2022-11-26T19:34:39.517Z,22.45
2022-11-26T19:37:07.872Z,21.33
2022-11-26T19:39:35.773Z,22.05
2022-11-26T19:42:03.457Z,22.60
2022-11-26T19:44:31.951Z,20.95
2022-11-26T19:46:59.649Z,21.00
2022-11-26T19:49:28.379Z,22.50
2022-11-26T19:51:56.807Z,22.65
2022-11-26T19:54:24.535Z,22.58
2022-11-26T19:56:52.379Z,22.90
2022-11-26T19:59:20.274Z,22.30
2022-11-26T20:01:48.130Z,22.83
2022-11-26T20:04:17.985Z,22.35
2022-11-26T20:06:45.684Z,21.45
2022-11-26T20:09:15.094Z,20.77
2022-11-26T20:11:42.863Z,21.73
2022-11-26T20:14:10.921Z,21.90
2022-11-26T20:16:41.182Z,22.40
2022-11-26T20:19:10.224Z,20.10
2022-11-26T20:21:38.160Z,21.33
2022-11-26T20:24:13.457Z,20.20
2022-11-26T20:26:42.609Z,21.58
2022-11-26T20:29:12.860Z,22.55
2022-11-26T20:31:45.460Z,20.13
2022-11-26T20:34:19.116Z,23.92
2022-11-26T20:36:47.100Z,23.25
2022-11-26T20:39:20.347Z,21.48
2022-11-26T20:41:48.961Z,21.13
2022-11-26T20:44:16.751Z,20.77
2022-11-26T20:46:44.371Z,21.60
2022-11-26T20:49:12.009Z,21.75
2022-11-26T20:51:39.933Z,22.92
2022-11-26T20:54:08.187Z,22.73
2022-11-26T20:56:36.341Z,22.95
2022-11-26T20:59:04.246Z,21.60
2022-11-26T21:01:32.113Z,21.38
2022-11-26T21:03:59.981Z,23.17
2022-11-26T21:06:31.699Z,24.25
2022-11-26T21:09:01.476Z,22.75
2022-11-26T21:11:33.732Z,22.55
2022-11-26T21:14:01.859Z,23.48
2022-11-26T21:16:30.455Z,23.83
2022-11-26T21:18:58.487Z,23.80
2022-11-26T21:21:28.220Z,22.80
2022-11-26T21:23:57.891Z,22.40
2022-11-26T21:26:26.332Z,22.75
2022-11-26T21:28:56.257Z,24.23
2022-11-26T21:31:24.969Z,23.33
2022-11-26T21:33:59.172Z,23.30
2022-11-26T21:36:28.766Z,24.15
2022-11-26T21:38:56.550Z,23.50
2022-11-26T21:41:25.332Z,23.38
2022-11-26T21:43:53.291Z,24.02
2022-11-26T21:46:24.340Z,22.42
2022-11-26T21:48:56.905Z,22.85
2022-11-26T21:51:26.814Z,23.85
2022-11-26T21:53:55.831Z,22.58
2022-11-26T21:56:28.873Z,22.67
2022-11-26T21:58:58.640Z,23.00
2022-11-26T22:01:32.420Z,22.95
2022-11-26T22:04:07.525Z,22.48
2022-11-26T22:06:35.917Z,22.60
2022-11-26T22:09:04.916Z,23.20
2022-11-26T22:11:36.166Z,24.38
2022-11-26T22:14:04.628Z,22.88
2022-11-26T22:16:32.675Z,25.33
2022-11-26T22:19:02.066Z,22.75
2022-11-26T22:21:34.488Z,23.48
2022-11-26T22:24:03.967Z,23.42
2022-11-26T22:26:32.122Z,24.17
2022-11-26T22:29:00.290Z,22.92
2022-11-26T22:31:33.204Z,22.88
2022-11-26T22:34:04.280Z,26.67
2022-11-26T22:39:02.099Z,24.70
2022-11-26T22:41:29.727Z,25.33
2022-11-26T22:43:59.817Z,23.63
2022-11-26T22:46:28.242Z,23.75
2022-11-26T22:48:58.608Z,23.58
2022-11-26T22:51:29.036Z,22.50
2022-11-26T22:54:05.195Z,22.83
2022-11-26T22:56:33.757Z,22.83
2022-11-26T22:59:01.919Z,21.20
2022-11-26T23:01:32.456Z,21.20
2022-11-26T23:04:01.514Z,21.52
2022-11-26T23:06:30.821Z,23.83
2022-11-26T23:08:59.261Z,21.73
2022-11-26T23:11:30.108Z,21.83
2022-11-26T23:13:58.058Z,21.08
2022-11-26T23:16:27.143Z,20.95
2022-11-26T23:18:56.597Z,22.70
2022-11-26T23:21:30.566Z,22.60
2022-11-26T23:23:58.570Z,20.90
2022-11-26T23:26:32.182Z,22.20
2022-11-26T23:29:01.577Z,23.13
2022-11-26T23:31:32.490Z,22.23
2022-11-26T23:36:29.082Z,20.15
2022-11-26T23:38:58.871Z,20.35
2022-11-26T23:41:26.951Z,21.65
2022-11-26T23:43:54.792Z,25.35
2022-11-26T23:46:35.585Z,23.33
2022-11-26T23:49:03.446Z,22.08
2022-11-26T23:51:32.788Z,20.25
2022-11-26T23:54:00.433Z,20.50
